Time;durP1;ratioP1;P1;durP2;ratioP2;P2;SDS_P1;SDS_P2;PMS_P1;PMS_P2;Temp;Humidity;BMP_temperature;BMP_pressure;BME280_temperature;BME280_humidity;BME280_pressure;Samples;Min_cycle;Max_cycle;Signal;HPM_P1;HPM_P2
2022/10/10 00:01:49;;;;;;;6.78;1.60;;;;;;;;;;5096622;28;20876;-84
2022/10/10 00:04:21;;;;;;;5.78;1.70;;;;;;;;;;5090055;28;20888;-85
2022/10/10 00:06:49;;;;;;;11.77;1.98;;;;;;;;;;5082618;28;20911;-85
2022/10/10 00:09:23;;;;;;;7.93;1.70;;;;;;;;;;5107145;28;20421;-84
2022/10/10 00:11:56;;;;;;;5.68;1.73;;;;;;;;;;5095536;28;20433;-85
2022/10/10 00:14:24;;;;;;;7.63;1.63;;;;;;;;;;5107788;28;20424;-84
2022/10/10 00:16:57;;;;;;;6.72;1.83;;;;;;;;;;5101205;28;20425;-85
2022/10/10 00:19:24;;;;;;;5.20;1.60;;;;;;;;;;5090680;28;20419;-85
2022/10/10 00:21:52;;;;;;;8.73;2.20;;;;;;;;;;5088293;28;20425;-85
2022/10/10 00:24:20;;;;;;;6.82;1.90;;;;;;;;;;5094362;28;20417;-85
2022/10/10 00:26:49;;;;;;;6.78;1.60;;;;;;;;;;5092603;28;20439;-85
2022/10/10 00:29:22;;;;;;;8.70;1.60;;;;;;;;;;5085464;28;20429;-84
2022/10/10 00:31:50;;;;;;;7.70;1.73;;;;;;;;;;5080007;28;20426;-85
2022/10/10 00:34:18;;;;;;;7.28;2.20;;;;;;;;;;5084309;28;20788;-84
2022/10/10 00:36:50;;;;;;;6.72;1.65;;;;;;;;;;5094313;28;20420;-84
2022/10/10 00:39:18;;;;;;;9.40;1.73;;;;;;;;;;5100583;28;20394;-85
2022/10/10 00:41:52;;;;;;;6.05;1.77;;;;;;;;;;5104940;28;20412;-85
2022/10/10 00:44:27;;;;;;;7.40;2.00;;;;;;;;;;5107964;28;20415;-84
2022/10/10 00:46:54;;;;;;;8.83;2.03;;;;;;;;;;5084508;28;20500;-85
2022/10/10 00:49:30;;;;;;;5.00;1.53;;;;;;;;;;5094273;28;20409;-84
2022/10/10 00:52:03;;;;;;;7.23;1.77;;;;;;;;;;5083954;28;20421;-84
2022/10/10 00:54:32;;;;;;;5.97;1.80;;;;;;;;;;5101815;27;20432;-84
2022/10/10 00:57:08;;;;;;;7.55;1.73;;;;;;;;;;5098752;28;20793;-85
2022/10/10 00:59:42;;;;;;;7.53;1.77;;;;;;;;;;5082457;28;20431;-84
2022/10/10 01:02:15;;;;;;;8.68;1.70;;;;;;;;;;5098587;28;20738;-83
2022/10/10 01:04:44;;;;;;;6.50;1.63;;;;;;;;;;5092238;28;21451;-83
2022/10/10 01:07:13;;;;;;;5.60;1.60;;;;;;;;;;5100992;28;20416;-85
2022/10/10 01:09:47;;;;;;;9.02;1.92;;;;;;;;;;5095553;28;20424;-84
2022/10/10 01:12:18;;;;;;;5.43;1.77;;;;;;;;;;5105090;28;20400;-84
2022/10/10 01:14:50;;;;;;;5.70;1.60;;;;;;;;;;5095835;28;20427;-84
2022/10/10 01:17:27;;;;;;;5.22;1.60;;;;;;;;;;5114585;28;20760;-83
2022/10/10 01:20:14;;;;;;;5.68;1.70;;;;;;;;;;5087478;28;20815;-84
2022/10/10 01:22:49;;;;;;;6.07;1.90;;;;;;;;;;5099324;28;20415;-84
2022/10/10 01:25:23;;;;;;;6.87;1.83;;;;;;;;;;5094039;28;20433;-84
2022/10/10 01:27:53;;;;;;;7.10;1.80;;;;;;;;;;5096375;28;20412;-85
2022/10/10 01:30:24;;;;;;;7.47;1.80;;;;;;;;;;5104418;28;20782;-84
2022/10/10 01:33:01;;;;;;;11.32;1.83;;;;;;;;;;5100540;28;20437;-87
2022/10/10 01:35:32;;;;;;;9.27;1.65;;;;;;;;;;5085260;28;20416;-84
2022/10/10 01:38:05;;;;;;;7.10;1.90;;;;;;;;;;5096587;28;20398;-85
2022/10/10 01:40:43;;;;;;;7.35;2.00;;;;;;;;;;5091666;28;20421;-83
2022/10/10 01:43:16;;;;;;;5.87;1.90;;;;;;;;;;5084346;28;20422;-84
2022/10/10 01:45:46;;;;;;;10.15;1.85;;;;;;;;;;5107019;28;20392;-84
2022/10/10 01:48:21;;;;;;;6.93;1.80;;;;;;;;;;5086210;28;20422;-85
2022/10/10 01:51:00;;;;;;;7.40;1.90;;;;;;;;;;5096766;27;20425;-84
2022/10/10 01:53:38;;;;;;;4.35;1.65;;;;;;;;;;5098216;27;20426;-84
2022/10/10 01:56:14;;;;;;;6.70;1.88;;;;;;;;;;5085575;28;20837;-84
2022/10/10 01:58:52;;;;;;;6.95;1.85;;;;;;;;;;5082165;28;20429;-84
2022/10/10 02:01:25;;;;;;;8.57;1.80;;;;;;;;;;5093619;28;20412;-84
2022/10/10 02:04:02;;;;;;;6.03;1.90;;;;;;;;;;5088577;28;20427;-84
2022/10/10 02:06:33;;;;;;;8.07;1.87;;;;;;;;;;5094306;27;20929;-84
2022/10/10 02:09:03;;;;;;;8.00;2.08;;;;;;;;;;5088109;28;20425;-84
2022/10/10 02:11:37;;;;;;;9.20;2.65;;;;;;;;;;5092386;27;20406;-84
2022/10/10 02:14:09;;;;;;;6.90;1.88;;;;;;;;;;5090864;28;20915;-86
2022/10/10 02:16:39;;;;;;;8.02;2.10;;;;;;;;;;5074799;28;20766;-84
2022/10/10 02:19:08;;;;;;;8.13;2.10;;;;;;;;;;5093562;28;20412;-85
2022/10/10 02:21:37;;;;;;;8.70;2.35;;;;;;;;;;5109440;28;20402;-84
2022/10/10 02:24:06;;;;;;;4.55;1.77;;;;;;;;;;5087632;28;20411;-82
2022/10/10 02:26:36;;;;;;;6.28;1.90;;;;;;;;;;5091725;28;20768;-84
2022/10/10 02:29:05;;;;;;;5.90;1.80;;;;;;;;;;5097854;28;20897;-85
2022/10/10 02:31:34;;;;;;;8.68;2.13;;;;;;;;;;5094243;28;20439;-84
2022/10/10 02:34:07;;;;;;;9.45;2.13;;;;;;;;;;5091230;28;20428;-83
2022/10/10 02:36:40;;;;;;;7.38;2.00;;;;;;;;;;5085539;28;20764;-85
2022/10/10 02:39:14;;;;;;;9.57;2.30;;;;;;;;;;5099673;28;20420;-83
2022/10/10 02:41:42;;;;;;;5.72;2.03;;;;;;;;;;5106800;28;20404;-84
2022/10/10 02:44:11;;;;;;;8.40;2.47;;;;;;;;;;5120976;27;20410;-85
2022/10/10 02:46:44;;;;;;;7.68;1.98;;;;;;;;;;5108013;28;20423;-85
2022/10/10 02:49:24;;;;;;;6.93;2.13;;;;;;;;;;5091390;28;20409;-84
2022/10/10 02:51:57;;;;;;;10.10;2.30;;;;;;;;;;5097477;28;20433;-85
2022/10/10 02:54:25;;;;;;;7.10;2.10;;;;;;;;;;5104778;27;20401;-85
2022/10/10 02:56:57;;;;;;;8.60;2.10;;;;;;;;;;5107066;27;20424;-85
2022/10/10 02:59:25;;;;;;;8.77;2.40;;;;;;;;;;5089962;28;20409;-86
2022/10/10 03:01:53;;;;;;;8.55;2.42;;;;;;;;;;5090870;28;20889;-85
2022/10/10 03:04:21;;;;;;;8.43;2.35;;;;;;;;;;5110005;28;20423;-85
2022/10/10 03:06:55;;;;;;;6.93;2.13;;;;;;;;;;5112586;28;20404;-86
2022/10/10 03:09:28;;;;;;;7.15;2.35;;;;;;;;;;5112220;28;20416;-85
2022/10/10 03:11:55;;;;;;;7.75;2.17;;;;;;;;;;5093593;28;20880;-84
2022/10/10 03:14:23;;;;;;;6.43;1.95;;;;;;;;;;5094298;28;20408;-85
2022/10/10 03:16:56;;;;;;;8.63;2.10;;;;;;;;;;5112349;28;20427;-85
2022/10/10 03:19:29;;;;;;;11.52;2.47;;;;;;;;;;5112342;28;20416;-85
2022/10/10 03:22:03;;;;;;;8.80;2.15;;;;;;;;;;5094142;28;20424;-85
2022/10/10 03:24:36;;;;;;;8.23;2.20;;;;;;;;;;5093293;28;20416;-85
2022/10/10 03:27:09;;;;;;;6.72;2.25;;;;;;;;;;5089693;28;20428;-84
2022/10/10 03:29:36;;;;;;;8.15;2.20;;;;;;;;;;5073104;28;20414;-85
2022/10/10 03:32:04;;;;;;;9.32;2.45;;;;;;;;;;5072997;28;20422;-84
2022/10/10 03:34:32;;;;;;;6.80;2.33;;;;;;;;;;5094781;28;20409;-84
2022/10/10 03:37:06;;;;;;;8.52;2.10;;;;;;;;;;5097643;28;20408;-85
2022/10/10 03:39:39;;;;;;;6.55;2.33;;;;;;;;;;5112246;28;20415;-84
2022/10/10 03:42:07;;;;;;;6.47;2.15;;;;;;;;;;5093091;28;20400;-84
2022/10/10 03:44:39;;;;;;;6.05;2.08;;;;;;;;;;5085477;28;20422;-85
2022/10/10 03:47:12;;;;;;;7.43;2.38;;;;;;;;;;5109846;28;20419;-85
2022/10/10 03:49:40;;;;;;;9.90;2.67;;;;;;;;;;5092985;28;20421;-86
2022/10/10 03:52:14;;;;;;;12.13;2.20;;;;;;;;;;5093496;28;20416;-83
2022/10/10 03:54:47;;;;;;;7.72;2.50;;;;;;;;;;5093349;28;20416;-85
2022/10/10 03:57:20;;;;;;;11.25;2.47;;;;;;;;;;5112047;28;20408;-86
2022/10/10 03:59:48;;;;;;;15.60;2.50;;;;;;;;;;5091520;28;20416;-85
2022/10/10 04:02:20;;;;;;;5.70;2.20;;;;;;;;;;5074821;28;20727;-84
2022/10/10 04:04:48;;;;;;;7.95;2.30;;;;;;;;;;5110162;28;20415;-84
2022/10/10 04:07:17;;;;;;;8.27;2.10;;;;;;;;;;5110493;28;20478;-84
2022/10/10 04:09:50;;;;;;;9.93;2.45;;;;;;;;;;5112400;28;20792;-84
2022/10/10 04:12:18;;;;;;;10.20;2.65;;;;;;;;;;5110217;28;20423;-84
2022/10/10 04:14:45;;;;;;;7.90;2.45;;;;;;;;;;5109977;28;20416;-85
2022/10/10 04:17:18;;;;;;;10.30;2.70;;;;;;;;;;5112690;28;20427;-84
2022/10/10 04:19:51;;;;;;;9.63;2.67;;;;;;;;;;5100336;28;20420;-84
2022/10/10 04:22:20;;;;;;;9.88;2.60;;;;;;;;;;5097264;28;20427;-84
2022/10/10 04:24:48;;;;;;;8.10;2.50;;;;;;;;;;5097645;28;20416;-85
2022/10/10 04:27:21;;;;;;;7.45;2.80;;;;;;;;;;5096762;28;20415;-84
2022/10/10 04:29:48;;;;;;;8.23;2.70;;;;;;;;;;5115821;28;20408;-85
2022/10/10 04:32:21;;;;;;;5.93;2.50;;;;;;;;;;5097681;28;20442;-83
2022/10/10 04:34:54;;;;;;;6.47;2.37;;;;;;;;;;5114450;28;20419;-85
2022/10/10 04:37:23;;;;;;;8.50;2.60;;;;;;;;;;5110089;28;20412;-85
2022/10/10 04:39:51;;;;;;;13.02;2.63;;;;;;;;;;5114126;28;20416;-84
2022/10/10 04:42:19;;;;;;;6.60;2.47;;;;;;;;;;5115885;28;20408;-84
2022/10/10 04:44:46;;;;;;;10.27;3.00;;;;;;;;;;5098578;28;20753;-85
2022/10/10 04:47:14;;;;;;;7.90;2.70;;;;;;;;;;5096935;28;20418;-85
2022/10/10 04:49:42;;;;;;;8.90;2.90;;;;;;;;;;5097111;28;20416;-86
2022/10/10 04:52:10;;;;;;;8.77;2.67;;;;;;;;;;5097221;28;20408;-85
2022/10/10 04:54:44;;;;;;;11.82;2.53;;;;;;;;;;5115471;28;20635;-85
2022/10/10 04:57:17;;;;;;;9.68;2.80;;;;;;;;;;5096143;28;20420;-85
2022/10/10 04:59:50;;;;;;;5.45;2.53;;;;;;;;;;5096748;28;20876;-86
2022/10/10 05:02:23;;;;;;;8.80;2.90;;;;;;;;;;5090799;28;20431;-85
2022/10/10 05:04:55;;;;;;;10.02;2.50;;;;;;;;;;5101757;28;20420;-86
2022/10/10 05:07:28;;;;;;;8.23;3.10;;;;;;;;;;5096346;28;20905;-85
2022/10/10 05:09:57;;;;;;;6.80;2.80;;;;;;;;;;5104234;28;20480;-84
2022/10/10 05:12:25;;;;;;;10.13;3.20;;;;;;;;;;5076299;28;20432;-85
2022/10/10 05:14:58;;;;;;;8.60;2.83;;;;;;;;;;5094714;28;20422;-85
2022/10/10 05:17:26;;;;;;;7.68;2.85;;;;;;;;;;5076061;28;20426;-85
2022/10/10 05:19:59;;;;;;;10.00;2.90;;;;;;;;;;5096267;28;20427;-85
2022/10/10 05:22:26;;;;;;;7.80;3.00;;;;;;;;;;5105550;28;20420;-85
2022/10/10 05:25:01;;;;;;;8.60;2.90;;;;;;;;;;5078162;28;20416;-85
2022/10/10 05:27:33;;;;;;;9.45;2.83;;;;;;;;;;5087395;28;20409;-85
2022/10/10 05:30:01;;;;;;;10.15;3.00;;;;;;;;;;5091199;28;20783;-85
2022/10/10 05:32:29;;;;;;;9.70;2.92;;;;;;;;;;5095567;27;20407;-85
2022/10/10 05:35:03;;;;;;;8.40;2.95;;;;;;;;;;5103931;28;20885;-86
2022/10/10 05:37:31;;;;;;;10.60;3.10;;;;;;;;;;5096171;28;20419;-86
2022/10/10 05:40:00;;;;;;;10.10;2.95;;;;;;;;;;5094697;28;20417;-86
2022/10/10 05:42:28;;;;;;;7.32;3.05;;;;;;;;;;5104119;28;20423;-87
2022/10/10 05:45:01;;;;;;;7.70;3.00;;;;;;;;;;5114581;28;20762;-84
2022/10/10 05:47:34;;;;;;;9.00;2.97;;;;;;;;;;5105957;28;20655;-87
2022/10/10 05:50:02;;;;;;;11.65;2.72;;;;;;;;;;5101235;28;20865;-85
2022/10/10 05:52:35;;;;;;;11.13;3.25;;;;;;;;;;5092065;28;20447;-85
2022/10/10 05:55:09;;;;;;;6.88;2.50;;;;;;;;;;5081809;28;20418;-86
2022/10/10 05:57:37;;;;;;;9.18;2.80;;;;;;;;;;5100986;28;20868;-86
2022/10/10 06:00:05;;;;;;;9.68;2.90;;;;;;;;;;5083098;28;20423;-86
2022/10/10 06:02:38;;;;;;;8.17;2.90;;;;;;;;;;5087306;28;20422;-84
2022/10/10 06:05:06;;;;;;;9.17;3.00;;;;;;;;;;5085717;28;20420;-86
2022/10/10 06:07:39;;;;;;;6.40;2.90;;;;;;;;;;5106025;27;20786;-84
2022/10/10 06:10:09;;;;;;;9.00;2.80;;;;;;;;;;5115883;27;20406;-83
2022/10/10 06:12:37;;;;;;;11.00;3.00;;;;;;;;;;5105881;28;20400;-83
2022/10/10 06:15:10;;;;;;;8.55;3.03;;;;;;;;;;5095292;28;20432;-83
2022/10/10 06:17:43;;;;;;;8.82;2.92;;;;;;;;;;5085305;28;20756;-83
2022/10/10 06:20:16;;;;;;;10.05;3.50;;;;;;;;;;5113616;28;20412;-83
2022/10/10 06:22:48;;;;;;;11.02;3.60;;;;;;;;;;5096927;28;20424;-82
2022/10/10 06:25:18;;;;;;;11.50;3.60;;;;;;;;;;5090413;28;20416;-83
2022/10/10 06:27:51;;;;;;;10.43;3.70;;;;;;;;;;5103536;28;20773;-82
2022/10/10 06:30:18;;;;;;;11.82;3.75;;;;;;;;;;5096656;28;20428;-81
2022/10/10 06:32:46;;;;;;;10.32;3.70;;;;;;;;;;5086645;28;20416;-83
2022/10/10 06:35:19;;;;;;;10.80;3.58;;;;;;;;;;5092829;28;20425;-82
2022/10/10 06:37:52;;;;;;;7.13;3.30;;;;;;;;;;5100200;28;20777;-83
2022/10/10 06:40:21;;;;;;;8.13;2.97;;;;;;;;;;5070112;28;20531;-82
2022/10/10 06:42:54;;;;;;;10.50;3.40;;;;;;;;;;5072332;28;20428;-84
2022/10/10 06:45:23;;;;;;;8.48;3.80;;;;;;;;;;5076248;28;20447;-82
2022/10/10 06:47:51;;;;;;;7.13;3.00;;;;;;;;;;5092561;28;20415;-82
2022/10/10 06:50:18;;;;;;;9.77;3.50;;;;;;;;;;5078060;28;20424;-83
2022/10/10 06:52:47;;;;;;;9.57;3.33;;;;;;;;;;5069436;28;22221;-83
2022/10/10 06:55:21;;;;;;;8.85;3.25;;;;;;;;;;5067514;28;20432;-82
2022/10/10 06:57:48;;;;;;;9.88;3.22;;;;;;;;;;5070934;28;20443;-83
2022/10/10 07:00:21;;;;;;;8.55;2.97;;;;;;;;;;5074398;28;20912;-83
2022/10/10 07:02:52;;;;;;;8.00;3.13;;;;;;;;;;5088429;28;21149;-84
2022/10/10 07:05:25;;;;;;;6.93;2.63;;;;;;;;;;5071264;28;20439;-85
2022/10/10 07:07:58;;;;;;;9.00;2.90;;;;;;;;;;5070857;28;20510;-85
2022/10/10 07:10:27;;;;;;;9.43;2.90;;;;;;;;;;5090643;28;20853;-84
2022/10/10 07:12:55;;;;;;;6.03;2.67;;;;;;;;;;5074301;28;20421;-83
2022/10/10 07:15:23;;;;;;;8.43;2.75;;;;;;;;;;5075619;28;20426;-83
2022/10/10 07:17:56;;;;;;;8.13;3.00;;;;;;;;;;5091722;28;20432;-86
2022/10/10 07:20:24;;;;;;;7.18;2.90;;;;;;;;;;5076051;28;20430;-85
2022/10/10 07:22:56;;;;;;;9.63;3.05;;;;;;;;;;5091257;28;20928;-85
2022/10/10 07:25:31;;;;;;;9.18;3.05;;;;;;;;;;5079335;28;20425;-84
2022/10/10 07:27:58;;;;;;;6.93;3.15;;;;;;;;;;5095008;28;20416;-84
2022/10/10 07:30:26;;;;;;;9.57;3.17;;;;;;;;;;5071717;28;20427;-83
2022/10/10 07:32:55;;;;;;;8.32;3.00;;;;;;;;;;5074377;28;20423;-85
2022/10/10 07:35:27;;;;;;;7.75;3.00;;;;;;;;;;5091570;28;20436;-84
2022/10/10 07:37:55;;;;;;;10.52;3.20;;;;;;;;;;5090569;28;20446;-84
2022/10/10 07:40:23;;;;;;;9.35;3.80;;;;;;;;;;5068180;28;20420;-84
2022/10/10 07:42:53;;;;;;;8.47;3.20;;;;;;;;;;5071157;28;20512;-84
2022/10/10 07:45:21;;;;;;;9.80;3.40;;;;;;;;;;5074559;28;20435;-84
2022/10/10 07:47:48;;;;;;;8.50;3.25;;;;;;;;;;5075377;28;20432;-86
2022/10/10 07:50:16;;;;;;;9.38;3.38;;;;;;;;;;5072503;28;20413;-85
2022/10/10 07:52:49;;;;;;;8.95;3.20;;;;;;;;;;5073165;28;21317;-84
2022/10/10 07:55:22;;;;;;;8.70;3.08;;;;;;;;;;5068232;28;20502;-85
2022/10/10 07:57:50;;;;;;;6.97;3.40;;;;;;;;;;5071916;28;20439;-85
2022/10/10 08:00:19;;;;;;;9.00;3.40;;;;;;;;;;5068632;28;21686;-84
2022/10/10 08:02:52;;;;;;;8.80;3.38;;;;;;;;;;5073108;28;20443;-83
2022/10/10 08:05:20;;;;;;;8.70;3.50;;;;;;;;;;5078908;28;20432;-86
2022/10/10 08:07:48;;;;;;;9.70;3.60;;;;;;;;;;5075323;28;20427;-84
2022/10/10 08:10:21;;;;;;;9.15;3.40;;;;;;;;;;5076415;28;20428;-84
2022/10/10 08:12:53;;;;;;;8.32;3.40;;;;;;;;;;5070031;28;20432;-85
2022/10/10 08:15:23;;;;;;;8.30;3.38;;;;;;;;;;5070273;28;20424;-85
2022/10/10 08:17:55;;;;;;;8.45;2.97;;;;;;;;;;5069009;28;20429;-84
2022/10/10 08:20:23;;;;;;;6.07;2.90;;;;;;;;;;5074281;28;20439;-85
2022/10/10 08:22:51;;;;;;;8.75;3.30;;;;;;;;;;5070021;28;20424;-84
2022/10/10 08:25:19;;;;;;;9.60;3.08;;;;;;;;;;5088142;28;20463;-84
2022/10/10 08:27:52;;;;;;;6.70;3.08;;;;;;;;;;5071069;28;20427;-86
2022/10/10 08:30:20;;;;;;;10.30;4.07;;;;;;;;;;5073344;28;20463;-85
2022/10/10 08:32:54;;;;;;;5.68;3.13;;;;;;;;;;5090412;28;21781;-85
2022/10/10 08:35:27;;;;;;;8.60;3.53;;;;;;;;;;5084556;28;20428;-88
2022/10/10 08:37:55;;;;;;;7.57;3.30;;;;;;;;;;5071037;28;20516;-85
2022/10/10 08:40:28;;;;;;;6.55;3.05;;;;;;;;;;5070931;28;20413;-86
2022/10/10 08:43:03;;;;;;;8.27;3.20;;;;;;;;;;5092099;28;20412;-85
2022/10/10 08:45:33;;;;;;;7.90;3.10;;;;;;;;;;5092333;28;20420;-84
2022/10/10 08:48:10;;;;;;;6.90;2.88;;;;;;;;;;5074868;28;20424;-85
2022/10/10 08:50:40;;;;;;;6.25;2.88;;;;;;;;;;5077488;28;20443;-85
2022/10/10 08:53:14;;;;;;;8.73;3.00;;;;;;;;;;5092795;28;21142;-86
2022/10/10 08:55:48;;;;;;;7.05;2.80;;;;;;;;;;5069371;28;20417;-84
2022/10/10 08:58:19;;;;;;;7.53;2.90;;;;;;;;;;5090317;28;20419;-86
2022/10/10 09:00:47;;;;;;;10.17;2.97;;;;;;;;;;5070400;28;20777;-84
2022/10/10 09:03:26;;;;;;;5.95;2.60;;;;;;;;;;5090376;28;20424;-83
2022/10/10 09:06:07;;;;;;;8.67;3.13;;;;;;;;;;5092587;28;20428;-86
2022/10/10 09:08:43;;;;;;;7.20;2.78;;;;;;;;;;5075525;28;21251;-86
2022/10/10 09:11:17;;;;;;;5.95;2.70;;;;;;;;;;5088551;27;20439;-84
2022/10/10 09:13:51;;;;;;;4.60;2.45;;;;;;;;;;5072958;28;20416;-84
2022/10/10 09:16:31;;;;;;;7.85;2.75;;;;;;;;;;5077571;28;20932;-85
2022/10/10 09:19:11;;;;;;;6.97;2.53;;;;;;;;;;5071784;28;20435;-86
2022/10/10 09:21:44;;;;;;;10.27;2.87;;;;;;;;;;5071741;28;20425;-84
2022/10/10 09:24:19;;;;;;;9.18;2.78;;;;;;;;;;5067416;28;20951;-85
2022/10/10 09:26:49;;;;;;;7.13;2.60;;;;;;;;;;5068489;28;20420;-81
2022/10/10 09:29:25;;;;;;;10.25;5.00;;;;;;;;;;5072352;28;20430;-82
2022/10/10 09:32:00;;;;;;;7.43;2.75;;;;;;;;;;5086508;28;21110;-84
2022/10/10 09:34:34;;;;;;;8.95;2.90;;;;;;;;;;5071086;28;20428;-83
2022/10/10 09:37:12;;;;;;;11.35;2.78;;;;;;;;;;5068615;28;20420;-84
2022/10/10 09:39:43;;;;;;;6.45;2.70;;;;;;;;;;5085918;28;20428;-85
2022/10/10 09:42:18;;;;;;;8.05;2.70;;;;;;;;;;5071866;28;20427;-84
2022/10/10 09:44:51;;;;;;;6.47;2.60;;;;;;;;;;5070601;28;20488;-85
2022/10/10 09:47:18;;;;;;;8.20;2.83;;;;;;;;;;5068361;28;20523;-85
2022/10/10 09:49:48;;;;;;;7.07;2.40;;;;;;;;;;5072863;28;20911;-84
2022/10/10 09:52:26;;;;;;;5.05;2.35;;;;;;;;;;5076081;28;20439;-85
2022/10/10 09:55:01;;;;;;;6.53;2.67;;;;;;;;;;5075098;28;20431;-85
2022/10/10 09:57:32;;;;;;;8.00;2.75;;;;;;;;;;5071924;28;20428;-85
2022/10/10 10:00:00;;;;;;;7.10;2.90;;;;;;;;;;5071791;28;20436;-86
2022/10/10 10:02:39;;;;;;;6.40;2.58;;;;;;;;;;5098590;28;20394;-84
2022/10/10 10:05:17;;;;;;;7.63;2.90;;;;;;;;;;5079213;28;21610;-83
2022/10/10 10:07:48;;;;;;;7.20;2.80;;;;;;;;;;5068812;28;20435;-85
2022/10/10 10:10:22;;;;;;;6.90;2.70;;;;;;;;;;5072299;28;20424;-84
2022/10/10 10:12:50;;;;;;;8.53;2.83;;;;;;;;;;5089043;28;20404;-85
2022/10/10 10:15:25;;;;;;;7.20;3.03;;;;;;;;;;5070765;28;21268;-84
2022/10/10 10:18:07;;;;;;;5.93;2.80;;;;;;;;;;5072600;28;20454;-83
2022/10/10 10:20:42;;;;;;;5.95;2.65;;;;;;;;;;5086902;28;20424;-85
2022/10/10 10:23:25;;;;;;;7.90;2.87;;;;;;;;;;5071374;28;20412;-85
2022/10/10 10:25:59;;;;;;;8.07;3.00;;;;;;;;;;5069263;28;20417;-85
2022/10/10 10:28:27;;;;;;;10.32;3.20;;;;;;;;;;5086580;28;20404;-83
2022/10/10 10:31:00;;;;;;;8.90;3.10;;;;;;;;;;5069588;28;20431;-83
2022/10/10 10:33:38;;;;;;;5.85;2.90;;;;;;;;;;5085917;28;20420;-84
2022/10/10 10:36:18;;;;;;;7.90;3.03;;;;;;;;;;5075391;28;20427;-84
2022/10/10 10:38:53;;;;;;;9.13;2.80;;;;;;;;;;5087818;28;20420;-85
2022/10/10 10:41:26;;;;;;;8.65;2.90;;;;;;;;;;5069655;28;20417;-84
2022/10/10 10:44:07;;;;;;;7.95;2.80;;;;;;;;;;5066884;28;20432;-83
2022/10/10 10:46:47;;;;;;;8.15;2.97;;;;;;;;;;5068908;28;20439;-85
2022/10/10 10:49:15;;;;;;;7.00;2.80;;;;;;;;;;5069451;28;20428;-84
2022/10/10 10:51:54;;;;;;;7.57;2.80;;;;;;;;;;5071804;28;20443;-85
2022/10/10 10:54:32;;;;;;;6.83;2.77;;;;;;;;;;5064543;28;20436;-84
2022/10/10 10:57:09;;;;;;;6.75;2.80;;;;;;;;;;5086529;28;20428;-84
2022/10/10 10:59:48;;;;;;;6.43;2.83;;;;;;;;;;5087133;28;21129;-83
2022/10/10 11:02:39;;;;;;;7.90;2.65;;;;;;;;;;5066938;28;20769;-83
2022/10/10 11:05:31;;;;;;;7.13;2.63;;;;;;;;;;5064767;28;20420;-83
2022/10/10 11:08:05;;;;;;;8.82;2.70;;;;;;;;;;5070930;28;20911;-85
2022/10/10 11:10:38;;;;;;;8.02;2.75;;;;;;;;;;5068989;28;20416;-83
2022/10/10 11:13:11;;;;;;;5.70;2.53;;;;;;;;;;5083112;28;21080;-82
2022/10/10 11:15:46;;;;;;;7.95;2.90;;;;;;;;;;5065780;28;20423;-83
2022/10/10 11:18:21;;;;;;;6.30;2.70;;;;;;;;;;5086762;28;20416;-83
2022/10/10 11:20:56;;;;;;;6.47;2.75;;;;;;;;;;5068657;28;20443;-84
2022/10/10 11:23:33;;;;;;;8.13;2.95;;;;;;;;;;5068527;28;20435;-84
2022/10/10 11:26:07;;;;;;;7.43;2.60;;;;;;;;;;5063592;28;21477;-82
2022/10/10 11:28:38;;;;;;;5.53;2.58;;;;;;;;;;5085389;28;20401;-85
2022/10/10 11:31:08;;;;;;;6.95;2.70;;;;;;;;;;5087803;28;20416;-84
2022/10/10 11:33:38;;;;;;;5.78;2.30;;;;;;;;;;5072560;28;20420;-84
2022/10/10 11:36:13;;;;;;;10.35;2.80;;;;;;;;;;5088767;28;20416;-82
2022/10/10 11:38:51;;;;;;;7.78;2.80;;;;;;;;;;5073739;28;20435;-83
2022/10/10 11:41:22;;;;;;;7.07;2.60;;;;;;;;;;5066423;28;21126;-83
2022/10/10 11:43:57;;;;;;;6.18;2.60;;;;;;;;;;5086712;28;20420;-82
2022/10/10 11:46:33;;;;;;;5.85;2.40;;;;;;;;;;5063649;28;20459;-83
2022/10/10 11:49:08;;;;;;;7.97;3.10;;;;;;;;;;5069870;28;20450;-84
2022/10/10 11:51:44;;;;;;;7.47;2.88;;;;;;;;;;5070334;28;20404;-85
2022/10/10 11:54:24;;;;;;;7.28;2.70;;;;;;;;;;5079952;28;20447;-84
2022/10/10 11:56:53;;;;;;;8.10;2.60;;;;;;;;;;5094162;28;20423;-84
2022/10/10 11:59:28;;;;;;;7.15;2.50;;;;;;;;;;5064307;28;20431;-82
2022/10/10 12:02:03;;;;;;;6.73;2.57;;;;;;;;;;5081551;28;20416;-85
2022/10/10 12:04:36;;;;;;;5.60;2.50;;;;;;;;;;5081924;28;20431;-84
2022/10/10 12:07:13;;;;;;;5.80;2.42;;;;;;;;;;5068864;28;20950;-84
2022/10/10 12:09:52;;;;;;;5.90;2.30;;;;;;;;;;5069036;28;20427;-83
2022/10/10 12:12:21;;;;;;;6.63;2.30;;;;;;;;;;5083042;28;20950;-82
2022/10/10 12:14:53;;;;;;;6.97;2.50;;;;;;;;;;5067029;28;20922;-83
2022/10/10 12:17:28;;;;;;;5.93;2.33;;;;;;;;;;5061098;28;20782;-83
2022/10/10 12:20:09;;;;;;;5.53;2.40;;;;;;;;;;5093402;28;20776;-83
2022/10/10 12:22:42;;;;;;;7.03;2.70;;;;;;;;;;5068414;28;20428;-85
2022/10/10 12:25:24;;;;;;;8.38;2.50;;;;;;;;;;5069866;28;20432;-85
2022/10/10 12:28:05;;;;;;;7.45;2.40;;;;;;;;;;5067144;28;21797;-83
2022/10/10 12:30:58;;;;;;;7.22;2.40;;;;;;;;;;5070593;28;20428;-85
2022/10/10 12:33:43;;;;;;;6.90;2.25;;;;;;;;;;5068373;28;21218;-84
2022/10/10 12:36:37;;;;;;;6.50;2.30;;;;;;;;;;5066787;28;20420;-83
2022/10/10 12:39:28;;;;;;;6.15;2.30;;;;;;;;;;5094193;28;20431;-86
2022/10/10 12:42:02;;;;;;;9.15;2.40;;;;;;;;;;5060277;28;21806;-84
2022/10/10 12:44:43;;;;;;;6.90;2.20;;;;;;;;;;5072203;28;20450;-85
2022/10/10 12:47:24;;;;;;;6.80;2.63;;;;;;;;;;5081333;28;20432;-85
2022/10/10 12:49:53;;;;;;;6.53;2.53;;;;;;;;;;5073426;28;20415;-83
2022/10/10 12:52:30;;;;;;;5.40;2.13;;;;;;;;;;5073026;28;20424;-83
2022/10/10 12:55:06;;;;;;;6.25;2.30;;;;;;;;;;5076846;28;20432;-86
2022/10/10 12:57:37;;;;;;;6.03;2.15;;;;;;;;;;5097768;28;20412;-84
2022/10/10 13:00:06;;;;;;;7.50;2.50;;;;;;;;;;5091995;28;20411;-84
2022/10/10 13:02:42;;;;;;;7.10;2.28;;;;;;;;;;5071554;28;20423;-87
2022/10/10 13:05:17;;;;;;;9.70;2.35;;;;;;;;;;5092653;28;20427;-86
2022/10/10 13:07:47;;;;;;;5.78;2.13;;;;;;;;;;5099403;28;20423;-84
2022/10/10 13:10:22;;;;;;;7.00;2.30;;;;;;;;;;5074075;28;20434;-83
2022/10/10 13:13:00;;;;;;;7.17;2.47;;;;;;;;;;5092118;28;20466;-84
2022/10/10 13:15:33;;;;;;;6.60;2.17;;;;;;;;;;5070385;28;20424;-83
2022/10/10 13:18:06;;;;;;;5.75;2.28;;;;;;;;;;5089698;28;20788;-83
2022/10/10 13:20:35;;;;;;;6.95;2.08;;;;;;;;;;5072875;28;21083;-84
2022/10/10 13:23:04;;;;;;;6.32;2.20;;;;;;;;;;5067663;28;20428;-85
2022/10/10 13:25:32;;;;;;;7.95;2.10;;;;;;;;;;5069314;28;20412;-82
2022/10/10 13:28:15;;;;;;;6.25;2.17;;;;;;;;;;5084266;28;20428;-83
2022/10/10 13:30:43;;;;;;;9.02;2.30;;;;;;;;;;5071413;28;20431;-82
2022/10/10 13:33:17;;;;;;;5.30;2.10;;;;;;;;;;5068480;28;20777;-86
2022/10/10 13:35:46;;;;;;;5.93;2.47;;;;;;;;;;5088599;28;20420;-82
2022/10/10 13:38:22;;;;;;;11.27;3.63;;;;;;;;;;5067338;28;20432;-82
2022/10/10 13:40:51;;;;;;;7.65;2.60;;;;;;;;;;5089563;28;20404;-84
2022/10/10 13:43:26;;;;;;;10.27;2.50;;;;;;;;;;5089243;27;20424;-83
2022/10/10 13:45:56;;;;;;;6.22;2.47;;;;;;;;;;5069451;28;20409;-84
2022/10/10 13:48:37;;;;;;;6.00;2.22;;;;;;;;;;5085655;28;20431;-81
2022/10/10 13:51:06;;;;;;;7.43;2.30;;;;;;;;;;5071481;28;20443;-85
2022/10/10 13:53:47;;;;;;;6.32;2.25;;;;;;;;;;5088819;28;20412;-85
2022/10/10 13:56:22;;;;;;;7.65;2.60;;;;;;;;;;5090429;28;20955;-85
2022/10/10 13:58:58;;;;;;;6.85;2.55;;;;;;;;;;5093258;28;20431;-85
2022/10/10 14:01:36;;;;;;;10.70;2.45;;;;;;;;;;5067139;28;20427;-85
2022/10/10 14:04:22;;;;;;;6.82;2.60;;;;;;;;;;5067887;28;20423;-88
2022/10/10 14:06:55;;;;;;;8.88;2.83;;;;;;;;;;5067809;28;20776;-86
2022/10/10 14:09:30;;;;;;;6.82;2.50;;;;;;;;;;5075313;28;20424;-86
2022/10/10 14:12:00;;;;;;;9.27;2.50;;;;;;;;;;5069297;28;20420;-86
2022/10/10 14:14:35;;;;;;;6.38;2.60;;;;;;;;;;5071039;28;20832;-84
2022/10/10 14:17:04;;;;;;;6.15;2.30;;;;;;;;;;5072095;28;20450;-84
2022/10/10 14:19:37;;;;;;;8.87;2.70;;;;;;;;;;5088191;28;20491;-87
2022/10/10 14:22:11;;;;;;;7.78;2.45;;;;;;;;;;5096231;28;20428;-86
2022/10/10 14:24:39;;;;;;;6.82;2.58;;;;;;;;;;5069687;28;20413;-85
2022/10/10 14:27:14;;;;;;;10.18;2.50;;;;;;;;;;5089542;28;20769;-85
2022/10/10 14:29:44;;;;;;;7.68;2.45;;;;;;;;;;5091719;28;20411;-86
2022/10/10 14:32:12;;;;;;;6.70;2.57;;;;;;;;;;5092931;28;20550;-88
2022/10/10 14:34:40;;;;;;;7.65;2.50;;;;;;;;;;5075243;28;20424;-85
2022/10/10 14:37:14;;;;;;;7.53;2.53;;;;;;;;;;5075882;28;20427;-86
2022/10/10 14:39:47;;;;;;;8.15;2.60;;;;;;;;;;5078557;28;20420;-85
2022/10/10 14:42:16;;;;;;;7.50;2.40;;;;;;;;;;5099844;28;20420;-83
2022/10/10 14:44:50;;;;;;;5.88;2.40;;;;;;;;;;5074400;28;20412;-86
2022/10/10 14:47:19;;;;;;;9.15;2.60;;;;;;;;;;5073262;28;20436;-84
2022/10/10 14:49:47;;;;;;;8.30;2.30;;;;;;;;;;5088850;28;20765;-85
2022/10/10 14:52:15;;;;;;;9.15;2.40;;;;;;;;;;5075320;28;20763;-87
2022/10/10 14:54:43;;;;;;;7.95;2.35;;;;;;;;;;5076638;28;20432;-85
2022/10/10 14:57:16;;;;;;;6.72;2.40;;;;;;;;;;5074693;28;20435;-86
2022/10/10 14:59:43;;;;;;;7.95;2.40;;;;;;;;;;5070158;28;20431;-87
2022/10/10 15:02:19;;;;;;;6.37;2.67;;;;;;;;;;5071927;28;20431;-85
2022/10/10 15:04:47;;;;;;;5.80;2.50;;;;;;;;;;5087943;28;20424;-84
2022/10/10 15:07:15;;;;;;;5.78;2.15;;;;;;;;;;5072531;28;20431;-85
2022/10/10 15:09:49;;;;;;;8.90;2.67;;;;;;;;;;5088795;28;20416;-86
2022/10/10 15:12:22;;;;;;;9.45;2.42;;;;;;;;;;5069936;28;20823;-85